RKSY/SSN METAR and TAF weather

Enter ICAO airport designator
Station Type Date Time Source
RKSY METAR 2019/05/16 19:58 UTC NOAA

RKSY 161958Z AUTO 00000KT 9999 CLR 17/12 A2991 RMK AO2 SLP131 T01680115 $


Station Type Date Time Source
RKSY Decoded METAR 2019/05/16 19:58 UTC NOAA

Yongsan / H-208 Hp, Korea, South (RKSY) 37-31N 126-59E
May 16, 2019 - 03:58 PM EDT / 2019.05.16 1958 UTC
Wind: Calm:0
Visibility: greater than 7 mile(s):0
Sky conditions: clear
Temperature: 62.2 F (16.8 C)
Dew Point: 52.7 F (11.5 C)
Relative Humidity: 70%
Pressure (altimeter): 29.91 in. Hg (1012 hPa)
ob: RKSY 161958Z AUTO 00000KT 9999 CLR 17/12 A2991 RMK AO2 SLP131 T01680115
cycle: 20

Station Type Date Time Source
RKSY TAF UTC NOAA

Error!

Example: see airport list